Time;durP1;ratioP1;P1;durP2;ratioP2;P2;SDS_P1;SDS_P2;PMS_P1;PMS_P2;Temp;Humidity;BMP_temperature;BMP_pressure;BME280_temperature;BME280_humidity;BME280_pressure;Samples;Min_cycle;Max_cycle;Signal;HPM_P1;HPM_P2
2022/11/02 00:02:16;;;;;;;2.15;2.05;;;;;;;;;;5054997;28;20048;-88
2022/11/02 00:04:42;;;;;;;2.70;2.50;;;;;;;;;;5036154;28;20504;-88
2022/11/02 00:07:09;;;;;;;1.77;1.67;;;;;;;;;;5036079;28;20061;-88
2022/11/02 00:09:35;;;;;;;5.75;3.15;;;;;;;;;;5035649;28;20201;-88
2022/11/02 00:12:02;;;;;;;2.28;1.70;;;;;;;;;;5035836;28;20049;-87
2022/11/02 00:14:30;;;;;;;0.63;0.63;;;;;;;;;;5035822;28;20053;-87
2022/11/02 00:16:56;;;;;;;1.80;1.70;;;;;;;;;;5035841;28;20053;-88
2022/11/02 00:19:23;;;;;;;1.58;1.48;;;;;;;;;;5035276;28;20119;-88
2022/11/02 00:21:49;;;;;;;1.52;1.50;;;;;;;;;;5035671;28;20053;-88
2022/11/02 00:24:16;;;;;;;4.13;2.00;;;;;;;;;;5049809;28;20053;-88
2022/11/02 00:26:42;;;;;;;2.58;2.38;;;;;;;;;;5055761;28;20044;-88
2022/11/02 00:29:09;;;;;;;1.80;1.70;;;;;;;;;;5055554;28;20095;-88
2022/11/02 00:31:37;;;;;;;20.38;3.03;;;;;;;;;;5055037;28;20053;-88
2022/11/02 00:34:03;;;;;;;1.33;1.27;;;;;;;;;;5042894;28;20049;-88
2022/11/02 00:36:30;;;;;;;1.52;1.42;;;;;;;;;;5035282;28;20103;-88
2022/11/02 00:38:56;;;;;;;4.93;2.75;;;;;;;;;;5035441;28;20077;-88
2022/11/02 00:41:23;;;;;;;1.80;1.70;;;;;;;;;;5035550;28;20042;-88
2022/11/02 00:43:49;;;;;;;3.33;1.80;;;;;;;;;;5035467;28;20053;-88
2022/11/02 00:46:16;;;;;;;3.38;2.53;;;;;;;;;;5035409;28;20053;-88
2022/11/02 00:48:44;;;;;;;4.88;2.33;;;;;;;;;;5035296;28;20045;-88
2022/11/02 00:51:10;;;;;;;1.20;1.17;;;;;;;;;;5034838;28;20103;-88
2022/11/02 00:53:36;;;;;;;1.00;0.90;;;;;;;;;;5035317;28;20103;-88
2022/11/02 00:56:03;;;;;;;2.17;1.92;;;;;;;;;;5035212;28;20127;-88
2022/11/02 00:58:30;;;;;;;1.05;1.05;;;;;;;;;;5041136;28;20114;-88
2022/11/02 01:00:56;;;;;;;1.65;1.40;;;;;;;;;;5055070;28;20049;-88
2022/11/02 01:03:22;;;;;;;2.65;2.47;;;;;;;;;;5054132;28;20485;-88
2022/11/02 01:05:50;;;;;;;2.08;1.98;;;;;;;;;;5054845;28;20227;-88
2022/11/02 01:08:17;;;;;;;2.53;1.65;;;;;;;;;;5055147;28;20049;-88
2022/11/02 01:10:43;;;;;;;1.65;1.55;;;;;;;;;;5054482;28;20581;-88
2022/11/02 01:13:10;;;;;;;2.13;2.03;;;;;;;;;;5055017;28;20057;-88
2022/11/02 01:15:36;;;;;;;2.60;2.40;;;;;;;;;;5054809;28;20045;-88
2022/11/02 01:18:03;;;;;;;1.63;1.52;;;;;;;;;;5052868;28;20493;-88
2022/11/02 01:20:29;;;;;;;1.63;1.52;;;;;;;;;;5034684;28;20460;-88
2022/11/02 01:22:58;;;;;;;2.65;1.98;;;;;;;;;;5034712;28;20076;-88
2022/11/02 01:25:25;;;;;;;2.53;2.15;;;;;;;;;;5034301;28;20049;-88
2022/11/02 01:27:51;;;;;;;1.92;1.40;;;;;;;;;;5034669;28;20054;-88
2022/11/02 01:30:18;;;;;;;7.20;2.80;;;;;;;;;;5034324;28;20049;-88
2022/11/02 01:32:44;;;;;;;1.95;1.75;;;;;;;;;;5033507;28;20576;-88
2022/11/02 01:35:11;;;;;;;2.13;2.03;;;;;;;;;;5034608;28;20057;-88
2022/11/02 01:37:37;;;;;;;2.20;2.00;;;;;;;;;;5034208;28;20532;-88
2022/11/02 01:40:06;;;;;;;2.65;2.55;;;;;;;;;;5034281;28;20053;-87
2022/11/02 01:42:32;;;;;;;1.58;1.48;;;;;;;;;;5034003;28;20049;-87
2022/11/02 01:44:59;;;;;;;2.50;2.30;;;;;;;;;;5033883;28;20049;-88
2022/11/02 01:47:27;;;;;;;3.00;2.60;;;;;;;;;;5034031;28;20099;-88
2022/11/02 01:49:56;;;;;;;3.05;2.38;;;;;;;;;;5034219;28;20049;-88
2022/11/02 01:52:25;;;;;;;1.85;1.75;;;;;;;;;;5033910;28;20528;-88
2022/11/02 01:54:53;;;;;;;4.50;2.30;;;;;;;;;;5034043;28;20095;-88
2022/11/02 01:57:22;;;;;;;1.90;1.58;;;;;;;;;;5033938;28;20049;-88
2022/11/02 01:59:50;;;;;;;2.97;1.73;;;;;;;;;;5047470;28;20049;-88
2022/11/02 02:02:18;;;;;;;4.20;2.72;;;;;;;;;;5052586;28;20049;-88
2022/11/02 02:04:45;;;;;;;2.30;1.75;;;;;;;;;;5040073;28;20053;-88
2022/11/02 02:07:12;;;;;;;17.65;2.60;;;;;;;;;;5033739;28;20049;-88
2022/11/02 02:09:38;;;;;;;6.03;3.17;;;;;;;;;;5033464;28;20565;-88
2022/11/02 02:12:05;;;;;;;3.30;2.30;;;;;;;;;;5033572;28;20100;-88
2022/11/02 02:14:34;;;;;;;2.08;1.95;;;;;;;;;;5033791;28;20049;-88
2022/11/02 02:17:06;;;;;;;2.80;2.58;;;;;;;;;;5033230;28;20139;-88
2022/11/02 02:19:38;;;;;;;3.95;3.55;;;;;;;;;;5033171;28;20053;-88
2022/11/02 02:22:13;;;;;;;2.45;2.10;;;;;;;;;;5033248;28;20486;-88
2022/11/02 02:24:48;;;;;;;3.75;2.85;;;;;;;;;;5033253;28;20057;-88
2022/11/02 02:27:17;;;;;;;2.40;2.08;;;;;;;;;;5033055;28;20042;-88
2022/11/02 02:29:49;;;;;;;3.55;3.25;;;;;;;;;;5033351;28;20046;-88
2022/11/02 02:32:19;;;;;;;2.50;2.30;;;;;;;;;;5032568;28;20558;-88
2022/11/02 02:34:48;;;;;;;2.67;1.95;;;;;;;;;;5033054;28;20053;-88
2022/11/02 02:37:17;;;;;;;2.10;2.00;;;;;;;;;;5033142;28;20111;-88
2022/11/02 02:39:46;;;;;;;1.40;1.30;;;;;;;;;;5033382;28;20053;-88
2022/11/02 02:42:18;;;;;;;1.58;1.25;;;;;;;;;;5033063;28;20547;-88
2022/11/02 02:44:48;;;;;;;2.35;2.03;;;;;;;;;;5033297;28;20053;-88
2022/11/02 02:47:17;;;;;;;4.80;3.05;;;;;;;;;;5032949;28;20213;-88
2022/11/02 02:49:45;;;;;;;1.63;1.50;;;;;;;;;;5043401;28;20055;-87
2022/11/02 02:52:12;;;;;;;1.48;1.38;;;;;;;;;;5052945;28;20061;-87
2022/11/02 02:54:40;;;;;;;5.72;2.38;;;;;;;;;;5043177;28;20053;-87
2022/11/02 02:57:08;;;;;;;3.42;3.03;;;;;;;;;;5032898;28;20053;-88
2022/11/02 02:59:36;;;;;;;2.10;2.00;;;;;;;;;;5032510;28;20049;-87
2022/11/02 03:02:05;;;;;;;1.73;1.63;;;;;;;;;;5032474;28;20092;-87
2022/11/02 03:04:33;;;;;;;4.15;3.95;;;;;;;;;;5040597;28;20052;-87
2022/11/02 03:07:00;;;;;;;4.57;2.30;;;;;;;;;;5053040;28;20052;-87
2022/11/02 03:09:30;;;;;;;2.78;2.50;;;;;;;;;;5052608;28;20494;-87
2022/11/02 03:12:03;;;;;;;5.18;2.53;;;;;;;;;;5052649;28;20041;-88
2022/11/02 03:14:35;;;;;;;1.63;1.52;;;;;;;;;;5053093;28;20044;-88
2022/11/02 03:17:05;;;;;;;2.67;2.47;;;;;;;;;;5053475;28;20459;-88
2022/11/02 03:19:36;;;;;;;2.70;2.60;;;;;;;;;;5053484;28;20493;-87
2022/11/02 03:22:06;;;;;;;1.88;1.77;;;;;;;;;;5052629;28;20049;-87
2022/11/02 03:24:35;;;;;;;2.90;2.63;;;;;;;;;;5052668;28;20083;-88
2022/11/02 03:27:09;;;;;;;1.60;1.50;;;;;;;;;;5052636;28;20045;-88
2022/11/02 03:29:38;;;;;;;4.75;2.10;;;;;;;;;;5052085;28;20095;-88
2022/11/02 03:32:09;;;;;;;1.15;1.05;;;;;;;;;;5052188;28;20045;-87
2022/11/02 03:34:39;;;;;;;1.58;1.48;;;;;;;;;;5052477;28;20110;-88
2022/11/02 03:37:09;;;;;;;1.48;1.27;;;;;;;;;;5052398;28;20049;-88
2022/11/02 03:39:38;;;;;;;2.67;1.73;;;;;;;;;;5052136;28;20107;-87
2022/11/02 03:42:04;;;;;;;1.77;1.67;;;;;;;;;;5051938;28;20400;-87
2022/11/02 03:44:33;;;;;;;1.92;1.42;;;;;;;;;;5046863;28;20050;-87
2022/11/02 03:46:59;;;;;;;1.67;1.58;;;;;;;;;;5032553;28;20054;-88
2022/11/02 03:49:27;;;;;;;1.52;1.42;;;;;;;;;;5036700;28;20503;-87
2022/11/02 03:51:56;;;;;;;0.95;0.93;;;;;;;;;;5052300;28;20076;-88
2022/11/02 03:54:27;;;;;;;3.10;2.83;;;;;;;;;;5052162;28;20106;-88
2022/11/02 03:56:53;;;;;;;;;;;;;;;;;;5052287;28;20394;-87
2022/11/02 03:59:19;;;;;;;0.60;0.60;;;;;;;;;;5048817;28;19982;-87
2022/11/02 04:01:48;;;;;;;2.35;2.25;;;;;;;;;;5031811;28;20050;-87
2022/11/02 04:04:14;;;;;;;3.10;1.58;;;;;;;;;;5034088;28;20119;-87
2022/11/02 04:06:41;;;;;;;2.03;1.65;;;;;;;;;;5051776;28;20049;-87
2022/11/02 04:09:09;;;;;;;1.75;1.60;;;;;;;;;;5051867;28;20056;-87
2022/11/02 04:14:38;;;;;;;1.17;1.00;;;;;;;;;;5051937;28;20063;-87
2022/11/02 04:19:49;;;;;;;2.42;2.22;;;;;;;;;;5045498;28;20061;-87
2022/11/02 04:25:18;;;;;;;1.55;1.45;;;;;;;;;;5009617;28;20053;-88
2022/11/02 04:27:45;;;;;;;1.80;1.67;;;;;;;;;;5012720;28;20085;-87
2022/11/02 04:30:12;;;;;;;1.73;1.63;;;;;;;;;;5013483;28;20548;-88
2022/11/02 04:35:22;;;;;;;3.10;2.90;;;;;;;;;;5003672;28;20050;-87
2022/11/02 04:40:34;;;;;;;1.67;1.58;;;;;;;;;;4993780;28;20061;-87
2022/11/02 04:43:01;;;;;;;3.58;2.20;;;;;;;;;;4993283;28;20054;-87
2022/11/02 04:45:27;;;;;;;1.60;1.50;;;;;;;;;;4993607;28;20727;-87
2022/11/02 04:47:59;;;;;;;2.38;2.13;;;;;;;;;;4993637;28;20104;-87
2022/11/02 04:50:25;;;;;;;3.08;2.90;;;;;;;;;;5002720;28;20058;-87
2022/11/02 04:52:55;;;;;;;2.00;1.85;;;;;;;;;;5013166;28;20054;-88
2022/11/02 04:55:21;;;;;;;1.73;1.63;;;;;;;;;;5004906;28;20058;-88
2022/11/02 04:57:49;;;;;;;2.25;2.13;;;;;;;;;;4993365;28;20133;-87
2022/11/02 05:00:16;;;;;;;2.15;1.95;;;;;;;;;;5000597;28;20049;-88
2022/11/02 05:02:42;;;;;;;1.55;1.45;;;;;;;;;;5032995;28;20045;-88
2022/11/02 05:05:11;;;;;;;2.17;2.03;;;;;;;;;;5040958;28;20102;-87
2022/11/02 05:07:37;;;;;;;3.13;2.83;;;;;;;;;;5054646;28;20045;-87
2022/11/02 05:10:04;;;;;;;1.63;1.52;;;;;;;;;;5049125;28;20045;-88
2022/11/02 05:12:31;;;;;;;2.72;2.45;;;;;;;;;;5034424;28;20045;-88
2022/11/02 05:14:59;;;;;;;10.30;2.78;;;;;;;;;;5034751;28;20096;-88
2022/11/02 05:17:25;;;;;;;1.95;1.15;;;;;;;;;;5034603;28;20049;-88
2022/11/02 05:19:52;;;;;;;5.15;3.17;;;;;;;;;;5034168;28;20108;-88
2022/11/02 05:22:20;;;;;;;4.93;2.60;;;;;;;;;;5034290;28;20095;-88
2022/11/02 05:24:46;;;;;;;2.50;2.30;;;;;;;;;;5034734;28;20054;-88
2022/11/02 05:27:13;;;;;;;3.28;3.05;;;;;;;;;;5034683;28;20053;-88
2022/11/02 05:29:39;;;;;;;2.40;1.80;;;;;;;;;;5034763;28;20053;-88
2022/11/02 05:32:07;;;;;;;1.90;1.80;;;;;;;;;;5034250;28;20087;-88
2022/11/02 05:34:34;;;;;;;3.53;3.33;;;;;;;;;;5034119;28;20100;-88
2022/11/02 05:37:00;;;;;;;1.90;1.80;;;;;;;;;;5014763;28;20541;-88
2022/11/02 05:39:27;;;;;;;2.17;2.03;;;;;;;;;;5014579;28;20100;-88
2022/11/02 05:41:53;;;;;;;1.83;1.73;;;;;;;;;;5051830;28;20061;-88
2022/11/02 05:44:20;;;;;;;2.42;2.33;;;;;;;;;;5053787;28;20102;-88
2022/11/02 05:46:46;;;;;;;3.50;2.55;;;;;;;;;;5036458;28;20115;-88
2022/11/02 05:49:14;;;;;;;1.65;1.55;;;;;;;;;;5033797;28;20049;-88
2022/11/02 05:51:41;;;;;;;1.58;1.48;;;;;;;;;;5033870;28;20110;-87
2022/11/02 05:54:07;;;;;;;1.88;1.77;;;;;;;;;;5034128;28;20041;-88
2022/11/02 05:56:34;;;;;;;2.33;2.13;;;;;;;;;;5033442;28;20049;-88
2022/11/02 05:59:00;;;;;;;2.28;2.08;;;;;;;;;;5033791;28;20060;-88
2022/11/02 06:01:27;;;;;;;3.72;3.38;;;;;;;;;;5026851;28;20894;-88
2022/11/02 06:03:53;;;;;;;6.18;4.13;;;;;;;;;;5033136;28;20050;-88
2022/11/02 06:06:21;;;;;;;5.25;4.80;;;;;;;;;;5032927;28;20115;-88
2022/11/02 06:08:48;;;;;;;3.22;2.95;;;;;;;;;;5033383;28;20119;-88
2022/11/02 06:11:15;;;;;;;9.55;3.08;;;;;;;;;;5033291;28;20053;-88
2022/11/02 06:13:42;;;;;;;2.30;1.88;;;;;;;;;;5032968;28;20452;-88
2022/11/02 06:16:09;;;;;;;1.77;1.67;;;;;;;;;;5032688;28;20049;-88
2022/11/02 06:18:36;;;;;;;1.88;1.77;;;;;;;;;;5032746;28;20050;-88
2022/11/02 06:21:02;;;;;;;1.73;1.63;;;;;;;;;;5042190;28;20044;-88
2022/11/02 06:23:30;;;;;;;2.92;2.10;;;;;;;;;;5049871;28;20049;-88
2022/11/02 06:25:58;;;;;;;1.35;1.23;;;;;;;;;;5029099;28;20041;-89
2022/11/02 06:28:24;;;;;;;4.03;2.58;;;;;;;;;;5032192;28;20451;-89
2022/11/02 06:30:51;;;;;;;2.80;2.60;;;;;;;;;;5033770;28;20046;-89
2022/11/02 06:33:18;;;;;;;1.05;1.00;;;;;;;;;;5033042;28;20124;-87
2022/11/02 06:35:46;;;;;;;2.80;2.55;;;;;;;;;;5032250;28;20104;-88
2022/11/02 06:38:12;;;;;;;3.97;3.70;;;;;;;;;;5032183;28;20164;-88
2022/11/02 06:40:40;;;;;;;3.22;2.80;;;;;;;;;;5033085;28;20049;-89
2022/11/02 06:43:25;;;;;;;2.22;2.03;;;;;;;;;;5032388;28;20079;-89
2022/11/02 06:45:53;;;;;;;3.55;3.05;;;;;;;;;;5031967;28;20111;-89
2022/11/02 06:48:20;;;;;;;2.67;2.53;;;;;;;;;;5032400;28;20050;-87
2022/11/02 06:50:47;;;;;;;6.05;3.53;;;;;;;;;;5031767;28;20096;-87
2022/11/02 06:53:13;;;;;;;1.63;1.55;;;;;;;;;;5032465;28;20089;-89
2022/11/02 06:55:41;;;;;;;4.80;3.30;;;;;;;;;;5032449;28;20045;-90
2022/11/02 06:58:08;;;;;;;5.55;1.83;;;;;;;;;;5033148;28;20045;-89
2022/11/02 07:00:35;;;;;;;2.17;2.08;;;;;;;;;;5032861;28;20053;-87
2022/11/02 07:03:02;;;;;;;5.97;4.07;;;;;;;;;;5032137;28;20046;-87
2022/11/02 07:05:28;;;;;;;6.28;3.65;;;;;;;;;;5032790;28;20064;-88
2022/11/02 07:07:55;;;;;;;3.53;3.22;;;;;;;;;;5032919;28;20049;-88
2022/11/02 07:10:22;;;;;;;3.10;2.90;;;;;;;;;;5032091;28;20061;-88
2022/11/02 07:12:53;;;;;;;3.72;2.72;;;;;;;;;;5032917;28;20049;-89
2022/11/02 07:15:19;;;;;;;2.88;2.60;;;;;;;;;;5032838;28;20056;-89
2022/11/02 07:17:46;;;;;;;3.95;3.65;;;;;;;;;;5052448;28;20045;-89
2022/11/02 07:20:12;;;;;;;2.85;2.65;;;;;;;;;;5052663;28;20090;-89
2022/11/02 07:22:39;;;;;;;5.28;3.35;;;;;;;;;;5043491;28;20042;-88
2022/11/02 07:25:06;;;;;;;3.75;3.33;;;;;;;;;;5032446;28;20049;-89
2022/11/02 07:27:37;;;;;;;5.68;3.25;;;;;;;;;;5032546;28;20168;-88
2022/11/02 07:30:06;;;;;;;2.45;2.25;;;;;;;;;;5032076;28;20061;-88
2022/11/02 07:32:38;;;;;;;1.70;1.60;;;;;;;;;;5032316;28;20187;-88
2022/11/02 07:35:06;;;;;;;1.70;1.58;;;;;;;;;;5032759;28;20455;-89
2022/11/02 07:37:32;;;;;;;2.25;2.15;;;;;;;;;;5035876;28;20060;-89
2022/11/02 07:39:59;;;;;;;2.40;2.20;;;;;;;;;;5032756;28;20108;-88
2022/11/02 07:42:25;;;;;;;2.75;2.50;;;;;;;;;;5032129;28;20049;-89
2022/11/02 07:44:52;;;;;;;2.22;2.13;;;;;;;;;;5032336;28;20597;-88
2022/11/02 07:47:20;;;;;;;4.00;2.63;;;;;;;;;;5032222;28;20049;-88
2022/11/02 07:49:46;;;;;;;4.05;3.75;;;;;;;;;;5032395;28;20448;-88
2022/11/02 07:52:13;;;;;;;3.63;3.17;;;;;;;;;;5031841;28;20046;-88
2022/11/02 07:54:39;;;;;;;4.40;4.00;;;;;;;;;;5031982;28;20056;-88
2022/11/02 07:57:06;;;;;;;2.72;2.53;;;;;;;;;;5032373;28;20053;-88
2022/11/02 07:59:32;;;;;;;3.40;3.20;;;;;;;;;;5031711;28;20053;-88
2022/11/02 08:01:59;;;;;;;3.65;3.33;;;;;;;;;;5047798;28;20049;-88
2022/11/02 08:04:27;;;;;;;5.57;4.45;;;;;;;;;;5056031;28;20061;-88
2022/11/02 08:06:53;;;;;;;4.32;4.03;;;;;;;;;;5055688;28;20056;-88
2022/11/02 08:09:20;;;;;;;3.47;3.17;;;;;;;;;;5055697;28;20106;-87
2022/11/02 08:11:46;;;;;;;4.80;1.88;;;;;;;;;;5055654;28;20511;-88
2022/11/02 08:14:13;;;;;;;3.58;3.33;;;;;;;;;;5055569;28;20048;-88
2022/11/02 08:16:39;;;;;;;6.82;3.80;;;;;;;;;;5047296;28;20053;-88
2022/11/02 08:19:06;;;;;;;4.72;2.33;;;;;;;;;;5035572;28;20053;-88
2022/11/02 08:21:34;;;;;;;2.70;2.50;;;;;;;;;;5035994;28;20053;-88
2022/11/02 08:24:00;;;;;;;6.25;3.47;;;;;;;;;;5035759;28;20045;-88
2022/11/02 08:26:27;;;;;;;4.22;2.67;;;;;;;;;;5041192;28;20049;-88
2022/11/02 08:28:53;;;;;;;4.97;4.13;;;;;;;;;;5055206;28;20114;-88
2022/11/02 08:31:20;;;;;;;3.85;3.55;;;;;;;;;;5055062;28;20045;-88
2022/11/02 08:33:46;;;;;;;4.50;3.22;;;;;;;;;;5055075;28;20630;-88
2022/11/02 08:36:13;;;;;;;4.38;3.97;;;;;;;;;;5051661;28;20042;-88
2022/11/02 08:38:41;;;;;;;6.05;3.50;;;;;;;;;;5035227;28;20560;-88
2022/11/02 08:41:07;;;;;;;5.22;3.33;;;;;;;;;;5034916;28;20100;-87
2022/11/02 08:43:34;;;;;;;3.30;3.03;;;;;;;;;;5034756;28;20045;-88
2022/11/02 08:46:01;;;;;;;2.05;1.95;;;;;;;;;;5035135;28;20095;-88
2022/11/02 08:48:28;;;;;;;4.75;4.35;;;;;;;;;;5035055;28;20061;-88
2022/11/02 08:50:55;;;;;;;5.05;3.95;;;;;;;;;;5035149;28;20041;-88
2022/11/02 08:53:21;;;;;;;4.15;3.75;;;;;;;;;;5035315;28;20077;-88
2022/11/02 08:55:49;;;;;;;13.40;3.42;;;;;;;;;;5034935;28;20460;-88
2022/11/02 08:58:17;;;;;;;4.28;3.92;;;;;;;;;;5053717;28;20556;-89
2022/11/02 09:00:43;;;;;;;4.25;3.97;;;;;;;;;;5054941;28;20048;-88
2022/11/02 09:03:11;;;;;;;3.80;3.47;;;;;;;;;;5054754;28;20485;-88
2022/11/02 09:05:38;;;;;;;4.00;3.33;;;;;;;;;;5054502;28;20559;-89
2022/11/02 09:08:05;;;;;;;2.60;2.50;;;;;;;;;;5054155;28;20167;-88
2022/11/02 09:10:33;;;;;;;3.92;3.60;;;;;;;;;;5054684;28;20053;-88
2022/11/02 09:13:01;;;;;;;6.13;4.40;;;;;;;;;;5037975;28;20053;-89
2022/11/02 09:15:29;;;;;;;3.47;3.17;;;;;;;;;;5034354;28;20103;-89
2022/11/02 09:17:55;;;;;;;5.47;5.13;;;;;;;;;;5034650;28;20099;-89
2022/11/02 09:20:22;;;;;;;4.10;3.83;;;;;;;;;;5034854;28;20080;-86
2022/11/02 09:22:49;;;;;;;4.03;3.72;;;;;;;;;;5034380;28;20079;-88
2022/11/02 09:25:15;;;;;;;5.20;4.40;;;;;;;;;;5034473;28;20123;-87
2022/11/02 09:27:42;;;;;;;4.15;3.78;;;;;;;;;;5034031;28;20092;-87
2022/11/02 09:30:11;;;;;;;3.15;2.90;;;;;;;;;;5034125;28;20107;-87
2022/11/02 09:32:38;;;;;;;11.75;4.18;;;;;;;;;;5034166;28;20486;-88
2022/11/02 09:35:06;;;;;;;6.57;5.97;;;;;;;;;;5034174;28;20099;-88
2022/11/02 09:37:32;;;;;;;3.03;2.83;;;;;;;;;;5033871;28;20064;-87
2022/11/02 09:39:59;;;;;;;5.78;5.03;;;;;;;;;;5034461;28;20489;-88
2022/11/02 09:42:30;;;;;;;4.47;4.18;;;;;;;;;;5034107;28;20103;-88
2022/11/02 09:44:59;;;;;;;4.78;4.38;;;;;;;;;;5033442;28;20476;-88
2022/11/02 09:47:28;;;;;;;6.40;4.72;;;;;;;;;;5043402;28;20107;-88
2022/11/02 09:49:56;;;;;;;3.53;3.22;;;;;;;;;;5053840;28;20053;-88
2022/11/02 09:52:24;;;;;;;5.15;4.75;;;;;;;;;;5053157;28;20501;-88
2022/11/02 09:54:54;;;;;;;8.75;3.15;;;;;;;;;;5053753;28;20118;-88
2022/11/02 09:57:26;;;;;;;4.90;4.35;;;;;;;;;;5053403;28;20053;-88
2022/11/02 09:59:53;;;;;;;13.70;4.07;;;;;;;;;;5053269;28;20118;-88
2022/11/02 10:02:25;;;;;;;6.35;4.30;;;;;;;;;;5053078;28;20099;-88
2022/11/02 10:05:01;;;;;;;4.53;4.03;;;;;;;;;;5053129;28;20484;-89
2022/11/02 10:07:34;;;;;;;5.80;5.30;;;;;;;;;;5053332;28;20501;-89
2022/11/02 10:10:03;;;;;;;7.43;5.22;;;;;;;;;;5053311;28;20049;-88
2022/11/02 10:12:34;;;;;;;7.40;5.35;;;;;;;;;;5052347;28;20103;-88
2022/11/02 10:15:03;;;;;;;11.52;10.65;;;;;;;;;;5053210;28;20115;-88
2022/11/02 10:17:32;;;;;;;8.20;6.95;;;;;;;;;;5052885;28;20051;-89
2022/11/02 10:20:02;;;;;;;14.60;8.90;;;;;;;;;;5052876;28;20053;-88
2022/11/02 10:22:32;;;;;;;7.38;6.38;;;;;;;;;;5052965;28;20131;-88
2022/11/02 10:25:01;;;;;;;7.07;6.38;;;;;;;;;;5052155;28;20435;-88
2022/11/02 10:27:29;;;;;;;5.93;3.97;;;;;;;;;;5048310;28;20567;-88
2022/11/02 10:29:59;;;;;;;5.40;4.95;;;;;;;;;;5033120;28;20053;-88
2022/11/02 10:32:25;;;;;;;6.65;6.13;;;;;;;;;;5032905;28;20053;-89
2022/11/02 10:34:52;;;;;;;7.85;4.95;;;;;;;;;;5033011;28;20092;-89
2022/11/02 10:37:24;;;;;;;6.47;6.03;;;;;;;;;;5032909;28;20521;-89
2022/11/02 10:39:55;;;;;;;6.80;6.30;;;;;;;;;;5034564;28;20053;-89
2022/11/02 10:42:32;;;;;;;7.55;5.80;;;;;;;;;;5037424;28;20053;-90
2022/11/02 10:45:06;;;;;;;6.15;5.75;;;;;;;;;;5032610;28;20800;-88
2022/11/02 10:47:37;;;;;;;9.63;5.75;;;;;;;;;;5032729;28;20104;-88
2022/11/02 10:50:14;;;;;;;6.68;5.97;;;;;;;;;;5032493;28;20061;-88
2022/11/02 10:52:43;;;;;;;4.63;4.25;;;;;;;;;;5032386;28;20061;-89
2022/11/02 10:55:13;;;;;;;8.60;7.43;;;;;;;;;;5032466;28;20490;-89
2022/11/02 10:57:39;;;;;;;5.85;5.47;;;;;;;;;;5032011;28;20453;-89
2022/11/02 11:00:22;;;;;;;5.40;4.55;;;;;;;;;;5032539;28;20099;-89
2022/11/02 11:03:01;;;;;;;7.20;6.65;;;;;;;;;;5032304;28;20041;-89
2022/11/02 11:05:28;;;;;;;7.32;6.78;;;;;;;;;;5032077;28;20099;-88
2022/11/02 11:07:56;;;;;;;7.22;6.72;;;;;;;;;;5032428;28;20123;-88
2022/11/02 11:10:23;;;;;;;6.45;5.78;;;;;;;;;;5032606;28;20056;-89
2022/11/02 11:12:50;;;;;;;5.72;5.32;;;;;;;;;;5032346;28;20050;-89
2022/11/02 11:15:22;;;;;;;6.80;6.40;;;;;;;;;;5032234;28;20053;-89
2022/11/02 11:17:49;;;;;;;8.40;5.90;;;;;;;;;;5032224;28;20050;-89
2022/11/02 11:20:27;;;;;;;6.60;6.15;;;;;;;;;;5032444;28;20456;-90
2022/11/02 11:23:09;;;;;;;7.75;5.68;;;;;;;;;;5032046;28;20049;-90
2022/11/02 11:25:36;;;;;;;5.22;4.82;;;;;;;;;;5032074;28;20494;-89
2022/11/02 11:28:02;;;;;;;8.52;8.02;;;;;;;;;;5031911;28;20046;-89
2022/11/02 11:30:29;;;;;;;8.68;8.00;;;;;;;;;;5032009;28;20042;-90
2022/11/02 11:32:57;;;;;;;8.57;8.05;;;;;;;;;;5032111;28;20092;-89
2022/11/02 11:35:25;;;;;;;6.95;6.55;;;;;;;;;;5028119;28;20049;-90
2022/11/02 11:37:53;;;;;;;7.40;6.63;;;;;;;;;;5036352;28;20049;-89
2022/11/02 11:40:21;;;;;;;7.18;6.53;;;;;;;;;;5036080;28;20498;-89
2022/11/02 11:42:49;;;;;;;4.50;4.20;;;;;;;;;;5036334;28;20042;-89
2022/11/02 11:45:20;;;;;;;6.32;5.65;;;;;;;;;;5036232;28;20049;-89
2022/11/02 11:47:50;;;;;;;5.88;5.47;;;;;;;;;;5036308;28;20075;-89
2022/11/02 11:50:17;;;;;;;6.68;5.95;;;;;;;;;;5036262;28;20115;-89
2022/11/02 11:52:44;;;;;;;6.57;5.97;;;;;;;;;;5035968;28;20542;-89
2022/11/02 11:55:30;;;;;;;7.93;7.43;;;;;;;;;;5035577;28;20489;-89
2022/11/02 11:58:14;;;;;;;9.80;9.20;;;;;;;;;;5042479;28;20049;-89
2022/11/02 12:00:41;;;;;;;7.25;6.55;;;;;;;;;;5056135;28;20057;-89
2022/11/02 12:03:09;;;;;;;8.73;8.25;;;;;;;;;;5055913;28;20048;-90
2022/11/02 12:05:38;;;;;;;8.52;7.93;;;;;;;;;;5055907;28;20207;-91
2022/11/02 12:08:27;;;;;;;6.97;5.30;;;;;;;;;;5055244;28;20102;-89
2022/11/02 12:11:02;;;;;;;10.05;9.13;;;;;;;;;;5055936;28;20053;-90
2022/11/02 12:13:37;;;;;;;7.45;6.95;;;;;;;;;;5055688;28;20456;-90
2022/11/02 12:16:09;;;;;;;8.13;5.78;;;;;;;;;;5055844;28;20044;-90
2022/11/02 12:18:46;;;;;;;6.30;5.90;;;;;;;;;;5054796;28;20115;-89
2022/11/02 12:21:18;;;;;;;6.97;6.38;;;;;;;;;;5055912;28;20048;-90
2022/11/02 12:23:55;;;;;;;8.48;7.88;;;;;;;;;;5043905;28;20096;-91
2022/11/02 12:26:28;;;;;;;7.75;7.30;;;;;;;;;;5035823;28;20103;-90
2022/11/02 12:28:59;;;;;;;7.80;7.13;;;;;;;;;;5035550;28;20452;-90
2022/11/02 12:31:33;;;;;;;6.47;5.97;;;;;;;;;;5035703;28;20054;-89
2022/11/02 12:34:20;;;;;;;8.80;8.27;;;;;;;;;;5049061;28;20052;-89
2022/11/02 12:36:54;;;;;;;5.70;5.32;;;;;;;;;;5053483;28;20056;-90
2022/11/02 12:39:27;;;;;;;9.25;7.78;;;;;;;;;;5034435;28;20049;-89
2022/11/02 12:42:00;;;;;;;7.80;7.28;;;;;;;;;;5035263;28;20049;-89
2022/11/02 12:44:35;;;;;;;7.35;6.43;;;;;;;;;;5052191;28;20064;-90
2022/11/02 12:47:06;;;;;;;10.43;9.90;;;;;;;;;;5054351;28;20049;-89
2022/11/02 12:49:37;;;;;;;8.60;8.10;;;;;;;;;;5037692;28;20049;-90
2022/11/02 12:52:10;;;;;;;9.27;8.85;;;;;;;;;;5035287;28;20064;-90
2022/11/02 12:54:41;;;;;;;8.90;8.20;;;;;;;;;;5052255;28;20049;-90
2022/11/02 12:57:11;;;;;;;10.30;9.77;;;;;;;;;;5054973;28;20057;-89
2022/11/02 12:59:41;;;;;;;10.52;9.52;;;;;;;;;;5054189;28;20099;-88
2022/11/02 13:02:12;;;;;;;9.57;8.88;;;;;;;;;;5054437;28;20052;-89
2022/11/02 13:04:42;;;;;;;9.20;8.70;;;;;;;;;;5037368;28;20049;-89
2022/11/02 13:07:11;;;;;;;10.63;9.77;;;;;;;;;;5034966;28;20049;-90
2022/11/02 13:09:38;;;;;;;10.68;10.07;;;;;;;;;;5050604;28;20107;-90
2022/11/02 13:12:08;;;;;;;10.05;8.10;;;;;;;;;;5054397;28;20057;-90
2022/11/02 13:14:38;;;;;;;10.20;9.32;;;;;;;;;;5054817;28;20062;-90
2022/11/02 13:17:10;;;;;;;10.27;9.77;;;;;;;;;;5054350;28;20053;-89
2022/11/02 13:19:39;;;;;;;13.20;12.20;;;;;;;;;;5038216;28;20525;-90
2022/11/02 13:22:08;;;;;;;6.60;6.15;;;;;;;;;;5034075;28;20053;-91
2022/11/02 13:24:39;;;;;;;10.07;9.07;;;;;;;;;;5034269;28;20084;-91
2022/11/02 13:27:06;;;;;;;10.90;10.20;;;;;;;;;;5034555;28;20493;-90
2022/11/02 13:29:37;;;;;;;8.20;7.45;;;;;;;;;;5049753;28;20114;-91
2022/11/02 13:32:06;;;;;;;9.23;8.13;;;;;;;;;;5054227;28;20053;-91
2022/11/02 13:34:35;;;;;;;7.60;7.05;;;;;;;;;;5039638;28;20049;-90
2022/11/02 13:37:07;;;;;;;8.18;7.75;;;;;;;;;;5034492;28;20095;-90
2022/11/02 13:39:37;;;;;;;8.50;8.02;;;;;;;;;;5031838;28;20563;-91
2022/11/02 13:42:12;;;;;;;8.93;8.25;;;;;;;;;;5034079;28;20055;-89
2022/11/02 13:44:59;;;;;;;12.75;12.05;;;;;;;;;;5048453;28;20041;-90
2022/11/02 13:47:32;;;;;;;9.40;4.85;;;;;;;;;;5051845;28;20061;-89
2022/11/02 13:50:02;;;;;;;6.57;6.22;;;;;;;;;;5036135;28;20111;-88
2022/11/02 13:52:35;;;;;;;9.10;8.50;;;;;;;;;;5033932;28;20076;-88
2022/11/02 13:55:02;;;;;;;7.15;6.68;;;;;;;;;;5051091;28;20103;-89
2022/11/02 13:57:33;;;;;;;7.30;6.63;;;;;;;;;;5053947;28;20052;-89
2022/11/02 14:00:00;;;;;;;8.50;7.97;;;;;;;;;;5035691;28;20049;-89
2022/11/02 14:02:28;;;;;;;6.05;5.07;;;;;;;;;;5033538;28;20053;-89
2022/11/02 14:04:55;;;;;;;6.05;5.68;;;;;;;;;;5033778;28;20057;-89
2022/11/02 14:07:25;;;;;;;11.35;9.82;;;;;;;;;;5034217;28;20053;-88
2022/11/02 14:09:56;;;;;;;8.48;7.93;;;;;;;;;;5048333;28;20049;-89
2022/11/02 14:12:28;;;;;;;7.63;6.50;;;;;;;;;;5065184;28;20045;-89
2022/11/02 14:15:12;;;;;;;6.85;6.43;;;;;;;;;;5059706;28;20460;-89
2022/11/02 14:17:55;;;;;;;7.35;5.68;;;;;;;;;;5053341;28;20052;-89
2022/11/02 14:20:36;;;;;;;8.25;7.68;;;;;;;;;;5034455;28;20501;-89
2022/11/02 14:23:21;;;;;;;6.85;6.15;;;;;;;;;;5031691;28;20088;-88
2022/11/02 14:25:50;;;;;;;9.30;7.10;;;;;;;;;;5013275;28;20402;-88
2022/11/02 14:28:41;;;;;;;6.50;6.13;;;;;;;;;;5025013;28;20096;-88
2022/11/02 14:31:27;;;;;;;5.90;5.25;;;;;;;;;;5054738;28;20104;-87
2022/11/02 14:34:00;;;;;;;5.90;5.50;;;;;;;;;;5045858;28;20049;-90
2022/11/02 14:36:38;;;;;;;6.20;5.82;;;;;;;;;;5033188;28;20045;-88
2022/11/02 14:39:09;;;;;;;7.55;7.00;;;;;;;;;;5040189;28;20098;-88
2022/11/02 14:42:01;;;;;;;8.25;7.68;;;;;;;;;;5053139;28;20049;-88
2022/11/02 14:44:34;;;;;;;6.93;6.05;;;;;;;;;;5043131;28;20079;-88
2022/11/02 14:47:03;;;;;;;6.88;6.03;;;;;;;;;;5032345;28;20053;-89
2022/11/02 14:49:31;;;;;;;5.10;4.63;;;;;;;;;;5032660;28;20049;-88
2022/11/02 14:52:00;;;;;;;5.07;4.75;;;;;;;;;;5033060;28;20061;-88
2022/11/02 14:54:27;;;;;;;7.22;6.80;;;;;;;;;;5041868;28;20045;-88
2022/11/02 14:56:57;;;;;;;5.45;4.97;;;;;;;;;;5052404;28;20095;-87
2022/11/02 14:59:26;;;;;;;5.18;4.88;;;;;;;;;;5021163;28;20560;-88
2022/11/02 15:01:55;;;;;;;7.90;7.30;;;;;;;;;;5031678;28;20057;-88
2022/11/02 15:04:22;;;;;;;16.42;6.63;;;;;;;;;;5032758;28;20108;-88
2022/11/02 15:06:52;;;;;;;8.85;4.97;;;;;;;;;;5032115;28;20045;-88
2022/11/02 15:09:33;;;;;;;5.82;5.05;;;;;;;;;;5032387;28;20045;-88